sensor_id;sensor_type;location;lat;lon;timestamp;P1;durP1;ratioP1;P2;durP2;ratioP2
32693;SDS011;19084;44.716;10.218;2022-10-13T00:01:33;27.25;;;16.90;;
32693;SDS011;19084;44.716;10.218;2022-10-13T00:04:06;27.05;;;17.48;;
32693;SDS011;19084;44.716;10.218;2022-10-13T00:06:38;31.25;;;18.38;;
32693;SDS011;19084;44.716;10.218;2022-10-13T00:09:11;30.52;;;18.35;;
32693;SDS011;19084;44.716;10.218;2022-10-13T00:11:44;26.13;;;17.83;;
32693;SDS011;19084;44.716;10.218;2022-10-13T00:14:16;29.38;;;17.42;;
32693;SDS011;19084;44.716;10.218;2022-10-13T00:16:49;25.90;;;16.23;;
32693;SDS011;19084;44.716;10.218;2022-10-13T00:19:22;28.08;;;17.67;;
32693;SDS011;19084;44.716;10.218;2022-10-13T00:21:54;26.55;;;15.75;;
32693;SDS011;19084;44.716;10.218;2022-10-13T00:24:27;29.45;;;16.40;;
32693;SDS011;19084;44.716;10.218;2022-10-13T00:26:59;26.30;;;16.98;;
32693;SDS011;19084;44.716;10.218;2022-10-13T00:29:32;29.20;;;17.58;;
32693;SDS011;19084;44.716;10.218;2022-10-13T00:32:04;32.97;;;17.98;;
32693;SDS011;19084;44.716;10.218;2022-10-13T00:34:37;26.40;;;17.58;;
32693;SDS011;19084;44.716;10.218;2022-10-13T00:37:10;27.42;;;17.58;;
32693;SDS011;19084;44.716;10.218;2022-10-13T00:39:42;26.27;;;18.15;;
32693;SDS011;19084;44.716;10.218;2022-10-13T00:42:16;27.10;;;18.15;;
32693;SDS011;19084;44.716;10.218;2022-10-13T00:47:48;26.90;;;17.48;;
32693;SDS011;19084;44.716;10.218;2022-10-13T00:50:28;30.63;;;18.30;;
32693;SDS011;19084;44.716;10.218;2022-10-13T00:53:06;31.95;;;18.17;;
32693;SDS011;19084;44.716;10.218;2022-10-13T00:58:15;32.88;;;19.67;;
32693;SDS011;19084;44.716;10.218;2022-10-13T01:00:53;29.60;;;18.60;;
32693;SDS011;19084;44.716;10.218;2022-10-13T01:03:26;27.33;;;18.80;;
32693;SDS011;19084;44.716;10.218;2022-10-13T01:05:59;27.90;;;18.48;;
32693;SDS011;19084;44.716;10.218;2022-10-13T01:14:07;29.08;;;19.15;;
32693;SDS011;19084;44.716;10.218;2022-10-13T01:25:27;35.85;;;21.77;;
32693;SDS011;19084;44.716;10.218;2022-10-13T01:34:09;39.63;;;21.02;;
32693;SDS011;19084;44.716;10.218;2022-10-13T01:36:54;30.33;;;20.50;;
32693;SDS011;19084;44.716;10.218;2022-10-13T01:42:20;31.08;;;20.00;;
32693;SDS011;19084;44.716;10.218;2022-10-13T01:44:57;31.77;;;20.60;;
32693;SDS011;19084;44.716;10.218;2022-10-13T01:47:32;29.40;;;20.80;;
32693;SDS011;19084;44.716;10.218;2022-10-13T01:50:07;31.13;;;19.50;;
32693;SDS011;19084;44.716;10.218;2022-10-13T01:52:41;28.92;;;20.75;;
32693;SDS011;19084;44.716;10.218;2022-10-13T01:55:14;28.77;;;19.63;;
32693;SDS011;19084;44.716;10.218;2022-10-13T01:57:46;30.42;;;19.27;;
32693;SDS011;19084;44.716;10.218;2022-10-13T02:00:20;29.98;;;20.35;;
32693;SDS011;19084;44.716;10.218;2022-10-13T02:05:45;27.23;;;18.63;;
32693;SDS011;19084;44.716;10.218;2022-10-13T02:13:46;30.27;;;20.67;;
32693;SDS011;19084;44.716;10.218;2022-10-13T02:16:30;33.05;;;20.20;;
32693;SDS011;19084;44.716;10.218;2022-10-13T02:19:07;30.88;;;20.00;;
32693;SDS011;19084;44.716;10.218;2022-10-13T02:24:14;29.65;;;19.10;;
32693;SDS011;19084;44.716;10.218;2022-10-13T02:26:47;32.30;;;19.60;;
32693;SDS011;19084;44.716;10.218;2022-10-13T02:29:23;30.83;;;19.75;;
32693;SDS011;19084;44.716;10.218;2022-10-13T02:31:55;30.30;;;19.80;;
32693;SDS011;19084;44.716;10.218;2022-10-13T02:34:28;30.45;;;19.42;;
32693;SDS011;19084;44.716;10.218;2022-10-13T02:37:00;29.42;;;19.25;;
32693;SDS011;19084;44.716;10.218;2022-10-13T02:39:33;31.27;;;19.05;;
32693;SDS011;19084;44.716;10.218;2022-10-13T02:42:06;26.92;;;19.45;;
32693;SDS011;19084;44.716;10.218;2022-10-13T02:44:38;32.88;;;19.52;;
32693;SDS011;19084;44.716;10.218;2022-10-13T02:47:11;36.38;;;20.52;;
32693;SDS011;19084;44.716;10.218;2022-10-13T02:49:44;27.35;;;18.50;;
32693;SDS011;19084;44.716;10.218;2022-10-13T02:52:16;29.88;;;18.35;;
32693;SDS011;19084;44.716;10.218;2022-10-13T02:54:49;30.30;;;19.20;;
32693;SDS011;19084;44.716;10.218;2022-10-13T02:57:22;34.90;;;19.40;;
32693;SDS011;19084;44.716;10.218;2022-10-13T02:59:56;30.55;;;18.65;;
32693;SDS011;19084;44.716;10.218;2022-10-13T03:02:29;26.63;;;19.27;;
32693;SDS011;19084;44.716;10.218;2022-10-13T03:05:02;32.40;;;20.15;;
32693;SDS011;19084;44.716;10.218;2022-10-13T03:07:35;31.42;;;20.52;;
32693;SDS011;19084;44.716;10.218;2022-10-13T03:10:08;34.75;;;19.90;;
32693;SDS011;19084;44.716;10.218;2022-10-13T03:12:41;29.35;;;19.65;;
32693;SDS011;19084;44.716;10.218;2022-10-13T03:15:14;29.73;;;19.75;;
32693;SDS011;19084;44.716;10.218;2022-10-13T03:17:47;27.30;;;18.45;;
32693;SDS011;19084;44.716;10.218;2022-10-13T03:20:19;29.33;;;20.13;;
32693;SDS011;19084;44.716;10.218;2022-10-13T03:22:52;29.70;;;20.20;;
32693;SDS011;19084;44.716;10.218;2022-10-13T03:25:25;31.42;;;18.17;;
32693;SDS011;19084;44.716;10.218;2022-10-13T03:27:57;33.50;;;19.05;;
32693;SDS011;19084;44.716;10.218;2022-10-13T03:30:30;30.27;;;19.13;;
32693;SDS011;19084;44.716;10.218;2022-10-13T03:33:03;30.08;;;17.85;;
32693;SDS011;19084;44.716;10.218;2022-10-13T03:35:36;28.08;;;19.55;;
32693;SDS011;19084;44.716;10.218;2022-10-13T03:38:08;27.80;;;19.23;;
32693;SDS011;19084;44.716;10.218;2022-10-13T03:40:41;26.25;;;18.48;;
32693;SDS011;19084;44.716;10.218;2022-10-13T03:43:14;31.10;;;18.33;;
32693;SDS011;19084;44.716;10.218;2022-10-13T03:48:36;28.98;;;18.48;;
32693;SDS011;19084;44.716;10.218;2022-10-13T03:51:11;31.20;;;19.17;;
32693;SDS011;19084;44.716;10.218;2022-10-13T03:53:48;31.10;;;18.77;;
32693;SDS011;19084;44.716;10.218;2022-10-13T03:56:23;26.52;;;18.33;;
32693;SDS011;19084;44.716;10.218;2022-10-13T03:58:58;31.30;;;18.85;;
32693;SDS011;19084;44.716;10.218;2022-10-13T04:01:32;28.85;;;18.75;;
32693;SDS011;19084;44.716;10.218;2022-10-13T04:04:05;28.75;;;19.63;;
32693;SDS011;19084;44.716;10.218;2022-10-13T04:06:38;36.63;;;20.95;;
32693;SDS011;19084;44.716;10.218;2022-10-13T04:09:11;29.48;;;19.15;;
32693;SDS011;19084;44.716;10.218;2022-10-13T04:11:44;27.98;;;19.10;;
32693;SDS011;19084;44.716;10.218;2022-10-13T04:14:16;27.58;;;18.35;;
32693;SDS011;19084;44.716;10.218;2022-10-13T04:16:49;35.50;;;20.73;;
32693;SDS011;19084;44.716;10.218;2022-10-13T04:19:21;31.45;;;20.15;;
32693;SDS011;19084;44.716;10.218;2022-10-13T04:21:54;31.80;;;20.30;;
32693;SDS011;19084;44.716;10.218;2022-10-13T04:24:27;31.23;;;20.88;;
32693;SDS011;19084;44.716;10.218;2022-10-13T04:27:00;34.60;;;20.60;;
32693;SDS011;19084;44.716;10.218;2022-10-13T04:29:33;28.10;;;18.75;;
32693;SDS011;19084;44.716;10.218;2022-10-13T04:32:05;26.67;;;19.25;;
32693;SDS011;19084;44.716;10.218;2022-10-13T04:34:38;27.20;;;19.02;;
32693;SDS011;19084;44.716;10.218;2022-10-13T04:37:11;28.58;;;20.00;;
32693;SDS011;19084;44.716;10.218;2022-10-13T04:39:43;30.15;;;19.40;;
32693;SDS011;19084;44.716;10.218;2022-10-13T04:42:16;31.40;;;20.20;;
32693;SDS011;19084;44.716;10.218;2022-10-13T04:44:49;31.88;;;20.60;;
32693;SDS011;19084;44.716;10.218;2022-10-13T04:47:25;28.40;;;18.70;;
32693;SDS011;19084;44.716;10.218;2022-10-13T04:49:57;30.40;;;17.98;;
32693;SDS011;19084;44.716;10.218;2022-10-13T04:52:30;28.70;;;18.88;;
32693;SDS011;19084;44.716;10.218;2022-10-13T04:55:04;31.85;;;20.30;;
32693;SDS011;19084;44.716;10.218;2022-10-13T04:57:37;29.70;;;19.95;;
32693;SDS011;19084;44.716;10.218;2022-10-13T05:00:10;30.15;;;20.67;;
32693;SDS011;19084;44.716;10.218;2022-10-13T05:02:43;33.08;;;20.13;;
32693;SDS011;19084;44.716;10.218;2022-10-13T05:05:16;33.40;;;20.58;;
32693;SDS011;19084;44.716;10.218;2022-10-13T05:07:49;32.55;;;19.90;;
32693;SDS011;19084;44.716;10.218;2022-10-13T05:10:22;35.45;;;20.98;;
32693;SDS011;19084;44.716;10.218;2022-10-13T05:12:54;30.85;;;20.95;;
32693;SDS011;19084;44.716;10.218;2022-10-13T05:15:27;33.78;;;20.40;;
32693;SDS011;19084;44.716;10.218;2022-10-13T05:17:59;29.85;;;19.48;;
32693;SDS011;19084;44.716;10.218;2022-10-13T05:20:32;36.00;;;21.00;;
32693;SDS011;19084;44.716;10.218;2022-10-13T05:23:05;33.40;;;20.70;;
32693;SDS011;19084;44.716;10.218;2022-10-13T05:25:38;28.50;;;19.85;;
32693;SDS011;19084;44.716;10.218;2022-10-13T05:28:14;29.77;;;20.88;;
32693;SDS011;19084;44.716;10.218;2022-10-13T05:30:47;32.60;;;21.02;;
32693;SDS011;19084;44.716;10.218;2022-10-13T05:33:19;37.25;;;21.05;;
32693;SDS011;19084;44.716;10.218;2022-10-13T05:35:52;36.92;;;22.25;;
32693;SDS011;19084;44.716;10.218;2022-10-13T05:38:24;37.35;;;23.52;;
32693;SDS011;19084;44.716;10.218;2022-10-13T05:41:05;33.33;;;23.25;;
32693;SDS011;19084;44.716;10.218;2022-10-13T05:43:40;34.53;;;21.40;;
32693;SDS011;19084;44.716;10.218;2022-10-13T05:46:14;34.65;;;21.95;;
32693;SDS011;19084;44.716;10.218;2022-10-13T05:48:46;32.95;;;21.75;;
32693;SDS011;19084;44.716;10.218;2022-10-13T05:51:27;32.22;;;21.42;;
32693;SDS011;19084;44.716;10.218;2022-10-13T05:54:07;30.85;;;20.60;;
32693;SDS011;19084;44.716;10.218;2022-10-13T05:56:51;28.02;;;19.13;;
32693;SDS011;19084;44.716;10.218;2022-10-13T05:59:31;30.15;;;21.17;;
32693;SDS011;19084;44.716;10.218;2022-10-13T06:02:08;30.88;;;20.88;;
32693;SDS011;19084;44.716;10.218;2022-10-13T06:04:44;30.27;;;20.23;;
32693;SDS011;19084;44.716;10.218;2022-10-13T06:07:20;33.92;;;22.02;;
32693;SDS011;19084;44.716;10.218;2022-10-13T06:09:53;26.60;;;18.65;;
32693;SDS011;19084;44.716;10.218;2022-10-13T06:12:27;32.90;;;21.50;;
32693;SDS011;19084;44.716;10.218;2022-10-13T06:14:59;31.75;;;19.23;;
32693;SDS011;19084;44.716;10.218;2022-10-13T06:17:34;32.40;;;20.63;;
32693;SDS011;19084;44.716;10.218;2022-10-13T06:20:09;33.55;;;20.58;;
32693;SDS011;19084;44.716;10.218;2022-10-13T06:22:42;30.80;;;19.08;;
32693;SDS011;19084;44.716;10.218;2022-10-13T06:25:14;30.58;;;19.38;;
32693;SDS011;19084;44.716;10.218;2022-10-13T06:27:47;31.88;;;19.45;;
32693;SDS011;19084;44.716;10.218;2022-10-13T06:30:20;28.77;;;19.65;;
32693;SDS011;19084;44.716;10.218;2022-10-13T06:32:53;28.75;;;19.55;;
32693;SDS011;19084;44.716;10.218;2022-10-13T06:35:27;30.95;;;19.92;;
32693;SDS011;19084;44.716;10.218;2022-10-13T06:37:59;29.23;;;19.73;;
32693;SDS011;19084;44.716;10.218;2022-10-13T06:40:33;32.50;;;20.38;;
32693;SDS011;19084;44.716;10.218;2022-10-13T06:43:06;31.17;;;19.63;;
32693;SDS011;19084;44.716;10.218;2022-10-13T06:45:44;29.35;;;19.63;;
32693;SDS011;19084;44.716;10.218;2022-10-13T06:48:17;32.90;;;18.77;;
32693;SDS011;19084;44.716;10.218;2022-10-13T06:50:50;31.42;;;19.70;;
32693;SDS011;19084;44.716;10.218;2022-10-13T06:53:23;30.85;;;19.92;;
32693;SDS011;19084;44.716;10.218;2022-10-13T06:55:57;30.00;;;18.42;;
32693;SDS011;19084;44.716;10.218;2022-10-13T06:58:32;31.70;;;19.33;;
32693;SDS011;19084;44.716;10.218;2022-10-13T07:01:06;33.47;;;19.02;;
32693;SDS011;19084;44.716;10.218;2022-10-13T07:03:39;30.88;;;18.20;;
32693;SDS011;19084;44.716;10.218;2022-10-13T07:06:11;32.30;;;18.13;;
32693;SDS011;19084;44.716;10.218;2022-10-13T07:08:44;30.40;;;17.92;;
32693;SDS011;19084;44.716;10.218;2022-10-13T07:11:18;27.85;;;17.02;;
32693;SDS011;19084;44.716;10.218;2022-10-13T07:13:55;29.45;;;18.63;;
32693;SDS011;19084;44.716;10.218;2022-10-13T07:16:28;30.60;;;18.08;;
32693;SDS011;19084;44.716;10.218;2022-10-13T07:19:01;26.88;;;16.92;;
32693;SDS011;19084;44.716;10.218;2022-10-13T07:21:33;29.63;;;16.88;;
32693;SDS011;19084;44.716;10.218;2022-10-13T07:24:06;35.28;;;17.92;;
32693;SDS011;19084;44.716;10.218;2022-10-13T07:26:41;26.58;;;16.52;;
32693;SDS011;19084;44.716;10.218;2022-10-13T07:29:13;30.08;;;16.98;;
32693;SDS011;19084;44.716;10.218;2022-10-13T07:31:46;29.50;;;18.08;;
32693;SDS011;19084;44.716;10.218;2022-10-13T07:34:19;30.40;;;19.38;;
32693;SDS011;19084;44.716;10.218;2022-10-13T07:36:52;32.83;;;18.40;;
32693;SDS011;19084;44.716;10.218;2022-10-13T07:39:25;39.92;;;20.08;;
32693;SDS011;19084;44.716;10.218;2022-10-13T07:41:57;37.83;;;21.02;;
32693;SDS011;19084;44.716;10.218;2022-10-13T07:44:30;40.60;;;23.45;;
32693;SDS011;19084;44.716;10.218;2022-10-13T07:47:03;35.42;;;23.73;;
32693;SDS011;19084;44.716;10.218;2022-10-13T07:49:36;37.53;;;23.33;;
32693;SDS011;19084;44.716;10.218;2022-10-13T07:52:08;39.03;;;23.35;;
32693;SDS011;19084;44.716;10.218;2022-10-13T07:54:41;34.72;;;22.25;;
32693;SDS011;19084;44.716;10.218;2022-10-13T07:57:15;38.47;;;24.20;;
32693;SDS011;19084;44.716;10.218;2022-10-13T07:59:48;38.47;;;26.15;;
32693;SDS011;19084;44.716;10.218;2022-10-13T08:02:20;36.15;;;24.23;;
32693;SDS011;19084;44.716;10.218;2022-10-13T08:04:53;38.58;;;25.00;;
32693;SDS011;19084;44.716;10.218;2022-10-13T08:07:25;42.05;;;24.63;;
32693;SDS011;19084;44.716;10.218;2022-10-13T08:09:58;34.92;;;23.88;;
32693;SDS011;19084;44.716;10.218;2022-10-13T08:12:31;37.75;;;23.83;;
32693;SDS011;19084;44.716;10.218;2022-10-13T08:15:06;40.10;;;26.02;;
32693;SDS011;19084;44.716;10.218;2022-10-13T08:17:39;41.40;;;25.48;;
32693;SDS011;19084;44.716;10.218;2022-10-13T08:20:12;43.38;;;29.02;;
32693;SDS011;19084;44.716;10.218;2022-10-13T08:22:45;47.80;;;32.15;;
32693;SDS011;19084;44.716;10.218;2022-10-13T08:25:17;44.47;;;30.25;;
32693;SDS011;19084;44.716;10.218;2022-10-13T08:27:50;42.03;;;28.02;;
32693;SDS011;19084;44.716;10.218;2022-10-13T08:30:31;46.85;;;30.52;;
32693;SDS011;19084;44.716;10.218;2022-10-13T08:33:04;38.45;;;29.25;;
32693;SDS011;19084;44.716;10.218;2022-10-13T08:35:36;42.47;;;28.35;;
32693;SDS011;19084;44.716;10.218;2022-10-13T08:38:09;41.53;;;30.00;;
32693;SDS011;19084;44.716;10.218;2022-10-13T08:40:46;48.08;;;29.00;;
32693;SDS011;19084;44.716;10.218;2022-10-13T08:43:21;43.85;;;28.98;;
32693;SDS011;19084;44.716;10.218;2022-10-13T08:45:57;42.08;;;29.95;;
32693;SDS011;19084;44.716;10.218;2022-10-13T08:48:34;45.25;;;29.20;;
32693;SDS011;19084;44.716;10.218;2022-10-13T08:51:13;51.38;;;30.02;;
32693;SDS011;19084;44.716;10.218;2022-10-13T08:53:47;45.92;;;31.40;;
32693;SDS011;19084;44.716;10.218;2022-10-13T08:56:25;46.50;;;31.10;;
32693;SDS011;19084;44.716;10.218;2022-10-13T08:59:02;42.58;;;29.40;;
32693;SDS011;19084;44.716;10.218;2022-10-13T09:01:35;40.67;;;29.05;;
32693;SDS011;19084;44.716;10.218;2022-10-13T09:09:36;42.47;;;29.58;;
32693;SDS011;19084;44.716;10.218;2022-10-13T09:12:10;48.45;;;29.50;;
32693;SDS011;19084;44.716;10.218;2022-10-13T09:14:54;45.05;;;28.58;;
32693;SDS011;19084;44.716;10.218;2022-10-13T09:17:34;45.28;;;30.52;;
32693;SDS011;19084;44.716;10.218;2022-10-13T09:23:04;50.17;;;31.15;;
32693;SDS011;19084;44.716;10.218;2022-10-13T09:25:42;45.15;;;31.33;;
32693;SDS011;19084;44.716;10.218;2022-10-13T09:28:21;45.80;;;28.85;;
32693;SDS011;19084;44.716;10.218;2022-10-13T09:33:46;41.05;;;29.83;;
32693;SDS011;19084;44.716;10.218;2022-10-13T09:36:32;47.55;;;29.55;;
32693;SDS011;19084;44.716;10.218;2022-10-13T09:39:12;52.70;;;35.20;;
32693;SDS011;19084;44.716;10.218;2022-10-13T09:41:48;48.95;;;31.20;;
32693;SDS011;19084;44.716;10.218;2022-10-13T09:44:28;49.50;;;29.10;;
32693;SDS011;19084;44.716;10.218;2022-10-13T09:47:02;42.60;;;26.95;;
32693;SDS011;19084;44.716;10.218;2022-10-13T09:49:37;41.45;;;29.13;;
32693;SDS011;19084;44.716;10.218;2022-10-13T09:54:48;44.97;;;30.33;;
32693;SDS011;19084;44.716;10.218;2022-10-13T10:00:09;45.20;;;30.20;;
32693;SDS011;19084;44.716;10.218;2022-10-13T10:02:53;39.90;;;29.17;;
32693;SDS011;19084;44.716;10.218;2022-10-13T10:11:44;39.78;;;25.00;;
32693;SDS011;19084;44.716;10.218;2022-10-13T10:20:02;38.78;;;27.20;;
32693;SDS011;19084;44.716;10.218;2022-10-13T10:22:43;35.17;;;24.88;;
32693;SDS011;19084;44.716;10.218;2022-10-13T10:30:58;33.45;;;22.67;;
32693;SDS011;19084;44.716;10.218;2022-10-13T10:33:48;33.83;;;22.15;;
32693;SDS011;19084;44.716;10.218;2022-10-13T10:39:16;28.80;;;19.08;;
32693;SDS011;19084;44.716;10.218;2022-10-13T10:42:19;27.73;;;20.00;;
32693;SDS011;19084;44.716;10.218;2022-10-13T10:45:17;34.05;;;21.02;;
32693;SDS011;19084;44.716;10.218;2022-10-13T10:47:55;26.90;;;17.57;;
32693;SDS011;19084;44.716;10.218;2022-10-13T10:50:33;26.83;;;18.10;;
32693;SDS011;19084;44.716;10.218;2022-10-13T10:53:10;32.00;;;18.58;;
32693;SDS011;19084;44.716;10.218;2022-10-13T10:55:54;30.33;;;20.27;;
32693;SDS011;19084;44.716;10.218;2022-10-13T10:58:42;34.13;;;20.05;;
32693;SDS011;19084;44.716;10.218;2022-10-13T11:01:37;29.85;;;17.98;;
32693;SDS011;19084;44.716;10.218;2022-10-13T11:10:00;26.90;;;17.87;;
32693;SDS011;19084;44.716;10.218;2022-10-13T11:18:44;35.83;;;18.02;;
32693;SDS011;19084;44.716;10.218;2022-10-13T11:21:11;24.95;;;18.77;;
32693;SDS011;19084;44.716;10.218;2022-10-13T11:23:48;34.00;;;20.08;;
32693;SDS011;19084;44.716;10.218;2022-10-13T11:28:59;31.02;;;18.08;;
32693;SDS011;19084;44.716;10.218;2022-10-13T11:31:46;30.10;;;18.27;;
32693;SDS011;19084;44.716;10.218;2022-10-13T11:34:26;24.75;;;16.75;;
32693;SDS011;19084;44.716;10.218;2022-10-13T11:37:01;24.60;;;17.33;;
32693;SDS011;19084;44.716;10.218;2022-10-13T11:39:50;27.90;;;17.92;;
32693;SDS011;19084;44.716;10.218;2022-10-13T11:45:31;26.92;;;16.67;;
32693;SDS011;19084;44.716;10.218;2022-10-13T11:53:58;28.67;;;16.65;;
32693;SDS011;19084;44.716;10.218;2022-10-13T11:59:22;23.90;;;14.50;;
32693;SDS011;19084;44.716;10.218;2022-10-13T12:01:56;24.58;;;14.57;;
32693;SDS011;19084;44.716;10.218;2022-10-13T12:04:37;21.98;;;14.98;;
32693;SDS011;19084;44.716;10.218;2022-10-13T12:07:17;24.65;;;15.70;;
32693;SDS011;19084;44.716;10.218;2022-10-13T12:09:55;20.52;;;13.63;;
32693;SDS011;19084;44.716;10.218;2022-10-13T12:12:29;20.33;;;11.32;;
32693;SDS011;19084;44.716;10.218;2022-10-13T12:15:21;18.83;;;10.90;;
32693;SDS011;19084;44.716;10.218;2022-10-13T12:18:15;18.55;;;11.23;;
32693;SDS011;19084;44.716;10.218;2022-10-13T12:20:53;19.17;;;11.65;;
32693;SDS011;19084;44.716;10.218;2022-10-13T12:23:28;17.35;;;10.68;;
32693;SDS011;19084;44.716;10.218;2022-10-13T12:26:03;16.98;;;10.05;;
32693;SDS011;19084;44.716;10.218;2022-10-13T12:31:29;21.23;;;11.15;;
32693;SDS011;19084;44.716;10.218;2022-10-13T12:37:03;19.98;;;11.25;;
32693;SDS011;19084;44.716;10.218;2022-10-13T12:39:44;20.23;;;10.70;;
32693;SDS011;19084;44.716;10.218;2022-10-13T12:42:19;19.05;;;10.40;;
32693;SDS011;19084;44.716;10.218;2022-10-13T12:44:57;18.75;;;10.65;;
32693;SDS011;19084;44.716;10.218;2022-10-13T12:55:46;21.17;;;10.10;;
32693;SDS011;19084;44.716;10.218;2022-10-13T12:58:23;19.48;;;10.82;;
32693;SDS011;19084;44.716;10.218;2022-10-13T13:03:54;15.65;;;9.93;;
32693;SDS011;19084;44.716;10.218;2022-10-13T13:06:30;16.48;;;9.52;;
32693;SDS011;19084;44.716;10.218;2022-10-13T13:11:48;15.48;;;10.25;;
32693;SDS011;19084;44.716;10.218;2022-10-13T13:14:37;17.67;;;11.10;;
32693;SDS011;19084;44.716;10.218;2022-10-13T13:23:00;19.45;;;11.90;;
32693;SDS011;19084;44.716;10.218;2022-10-13T13:25:34;17.90;;;13.03;;
32693;SDS011;19084;44.716;10.218;2022-10-13T13:28:09;23.25;;;13.25;;
32693;SDS011;19084;44.716;10.218;2022-10-13T13:30:44;18.95;;;12.20;;
32693;SDS011;19084;44.716;10.218;2022-10-13T13:33:17;23.02;;;13.27;;
32693;SDS011;19084;44.716;10.218;2022-10-13T13:35:50;20.08;;;12.45;;
32693;SDS011;19084;44.716;10.218;2022-10-13T13:38:24;18.85;;;11.45;;
32693;SDS011;19084;44.716;10.218;2022-10-13T13:40:57;21.25;;;12.30;;
32693;SDS011;19084;44.716;10.218;2022-10-13T13:43:34;18.60;;;12.02;;
32693;SDS011;19084;44.716;10.218;2022-10-13T13:46:11;20.60;;;12.73;;
32693;SDS011;19084;44.716;10.218;2022-10-13T13:48:48;20.20;;;12.52;;
32693;SDS011;19084;44.716;10.218;2022-10-13T13:51:21;21.00;;;12.45;;
32693;SDS011;19084;44.716;10.218;2022-10-13T13:53:53;20.92;;;12.63;;
32693;SDS011;19084;44.716;10.218;2022-10-13T13:56:26;21.42;;;13.25;;
32693;SDS011;19084;44.716;10.218;2022-10-13T13:58:59;19.35;;;12.43;;
32693;SDS011;19084;44.716;10.218;2022-10-13T14:01:31;18.45;;;12.07;;
32693;SDS011;19084;44.716;10.218;2022-10-13T14:04:04;25.55;;;13.73;;
32693;SDS011;19084;44.716;10.218;2022-10-13T14:06:36;19.17;;;12.63;;
32693;SDS011;19084;44.716;10.218;2022-10-13T14:09:09;22.00;;;13.25;;
32693;SDS011;19084;44.716;10.218;2022-10-13T14:11:42;21.73;;;12.70;;
32693;SDS011;19084;44.716;10.218;2022-10-13T14:14:14;30.08;;;15.73;;
32693;SDS011;19084;44.716;10.218;2022-10-13T14:16:47;26.90;;;13.68;;
32693;SDS011;19084;44.716;10.218;2022-10-13T14:19:20;21.73;;;14.30;;
32693;SDS011;19084;44.716;10.218;2022-10-13T14:21:52;23.40;;;12.02;;
32693;SDS011;19084;44.716;10.218;2022-10-13T14:24:25;20.52;;;12.27;;
32693;SDS011;19084;44.716;10.218;2022-10-13T14:26:58;23.20;;;13.13;;
32693;SDS011;19084;44.716;10.218;2022-10-13T14:29:31;23.95;;;12.20;;
32693;SDS011;19084;44.716;10.218;2022-10-13T14:32:04;20.05;;;12.43;;
32693;SDS011;19084;44.716;10.218;2022-10-13T14:34:36;21.10;;;11.90;;
32693;SDS011;19084;44.716;10.218;2022-10-13T14:37:09;20.13;;;11.48;;
32693;SDS011;19084;44.716;10.218;2022-10-13T14:39:43;16.13;;;10.43;;
32693;SDS011;19084;44.716;10.218;2022-10-13T14:42:16;17.80;;;10.70;;
32693;SDS011;19084;44.716;10.218;2022-10-13T14:44:49;25.05;;;12.02;;
32693;SDS011;19084;44.716;10.218;2022-10-13T14:50:36;20.30;;;9.85;;
32693;SDS011;19084;44.716;10.218;2022-10-13T14:53:10;21.10;;;11.32;;
32693;SDS011;19084;44.716;10.218;2022-10-13T14:55:46;21.63;;;11.90;;
32693;SDS011;19084;44.716;10.218;2022-10-13T14:58:20;21.55;;;11.88;;
32693;SDS011;19084;44.716;10.218;2022-10-13T15:00:53;20.30;;;12.18;;
32693;SDS011;19084;44.716;10.218;2022-10-13T15:03:26;23.80;;;13.95;;
32693;SDS011;19084;44.716;10.218;2022-10-13T15:06:00;27.88;;;13.18;;
32693;SDS011;19084;44.716;10.218;2022-10-13T15:08:33;25.33;;;13.65;;
32693;SDS011;19084;44.716;10.218;2022-10-13T15:11:07;23.48;;;13.70;;
32693;SDS011;19084;44.716;10.218;2022-10-13T15:13:40;24.27;;;13.30;;
32693;SDS011;19084;44.716;10.218;2022-10-13T15:16:15;19.55;;;11.75;;
32693;SDS011;19084;44.716;10.218;2022-10-13T15:18:50;23.30;;;13.23;;
32693;SDS011;19084;44.716;10.218;2022-10-13T15:21:23;21.10;;;11.90;;
32693;SDS011;19084;44.716;10.218;2022-10-13T15:23:56;20.25;;;11.65;;
32693;SDS011;19084;44.716;10.218;2022-10-13T15:26:29;20.05;;;12.40;;
32693;SDS011;19084;44.716;10.218;2022-10-13T15:29:01;21.50;;;12.38;;
32693;SDS011;19084;44.716;10.218;2022-10-13T15:31:34;19.23;;;11.75;;
32693;SDS011;19084;44.716;10.218;2022-10-13T15:34:07;24.52;;;12.43;;
32693;SDS011;19084;44.716;10.218;2022-10-13T15:36:46;19.63;;;12.25;;
32693;SDS011;19084;44.716;10.218;2022-10-13T15:39:18;25.23;;;13.45;;
32693;SDS011;19084;44.716;10.218;2022-10-13T15:41:51;22.80;;;14.55;;
32693;SDS011;19084;44.716;10.218;2022-10-13T15:44:24;24.92;;;13.10;;
32693;SDS011;19084;44.716;10.218;2022-10-13T15:46:57;21.55;;;13.05;;
32693;SDS011;19084;44.716;10.218;2022-10-13T15:49:39;22.63;;;13.15;;
32693;SDS011;19084;44.716;10.218;2022-10-13T15:52:12;15.52;;;11.85;;
32693;SDS011;19084;44.716;10.218;2022-10-13T15:54:45;19.13;;;11.88;;
32693;SDS011;19084;44.716;10.218;2022-10-13T15:57:22;18.75;;;11.35;;
32693;SDS011;19084;44.716;10.218;2022-10-13T15:59:56;17.50;;;10.80;;
32693;SDS011;19084;44.716;10.218;2022-10-13T16:02:29;17.98;;;10.77;;
32693;SDS011;19084;44.716;10.218;2022-10-13T16:05:02;17.98;;;11.35;;
32693;SDS011;19084;44.716;10.218;2022-10-13T16:07:38;19.35;;;11.20;;
32693;SDS011;19084;44.716;10.218;2022-10-13T16:10:13;18.08;;;11.05;;
32693;SDS011;19084;44.716;10.218;2022-10-13T16:12:50;18.13;;;11.40;;
32693;SDS011;19084;44.716;10.218;2022-10-13T16:15:23;23.10;;;10.57;;
32693;SDS011;19084;44.716;10.218;2022-10-13T16:17:56;18.92;;;11.05;;
32693;SDS011;19084;44.716;10.218;2022-10-13T16:20:31;15.05;;;9.75;;
32693;SDS011;19084;44.716;10.218;2022-10-13T16:23:06;16.52;;;10.25;;
32693;SDS011;19084;44.716;10.218;2022-10-13T16:25:38;18.90;;;10.77;;
32693;SDS011;19084;44.716;10.218;2022-10-13T16:28:12;15.52;;;10.20;;
32693;SDS011;19084;44.716;10.218;2022-10-13T16:30:45;17.90;;;10.50;;
32693;SDS011;19084;44.716;10.218;2022-10-13T16:33:19;18.65;;;11.05;;
32693;SDS011;19084;44.716;10.218;2022-10-13T16:36:00;15.80;;;9.85;;
32693;SDS011;19084;44.716;10.218;2022-10-13T16:38:35;16.42;;;9.95;;
32693;SDS011;19084;44.716;10.218;2022-10-13T16:41:11;16.52;;;10.15;;
32693;SDS011;19084;44.716;10.218;2022-10-13T16:43:46;17.75;;;9.55;;
32693;SDS011;19084;44.716;10.218;2022-10-13T16:46:19;16.65;;;9.50;;
32693;SDS011;19084;44.716;10.218;2022-10-13T16:48:52;16.10;;;9.20;;
32693;SDS011;19084;44.716;10.218;2022-10-13T16:51:25;17.15;;;9.68;;
32693;SDS011;19084;44.716;10.218;2022-10-13T16:53:59;15.00;;;9.95;;
32693;SDS011;19084;44.716;10.218;2022-10-13T16:56:35;14.43;;;9.73;;
32693;SDS011;19084;44.716;10.218;2022-10-13T16:59:08;15.80;;;10.02;;
32693;SDS011;19084;44.716;10.218;2022-10-13T17:01:41;17.60;;;10.27;;
32693;SDS011;19084;44.716;10.218;2022-10-13T17:04:15;16.55;;;9.82;;
32693;SDS011;19084;44.716;10.218;2022-10-13T17:06:53;16.75;;;10.15;;